DLH109 LKPR-EDDF
Flight info
| Callsign | DLH109 |
|---|---|
| Flight time | N/A |
| Altitude | 30000 |
| Route | BALTU DCT DONAD DCT RAPET T170 VAGAB/N0371F240 T170 GAPLA T178 KERAX KERAX5D |
| Aircraft | A320/M-SDE3FGHIRWY/LB1 |
Departure
| Time | 2026-04-30 19:31 |
|---|---|
| Airport | Václav Havel Airport Prague (LKPR) |
Arrival
| Time | N/A |
|---|---|
| Airport | Frankfurt Main Airport (EDDF) |
| Time | Latitude | Longitude | Altitude | Speed | Heading |
|---|---|---|---|---|---|
| 2026-04-30 19:08 | 50.10590 | 14.26272 | 1159 ft | 0 kts | 28° |
| 2026-04-30 19:19 | 50.10584 | 14.26267 | 1185 ft | 2 kts | 4° |
| 2026-04-30 19:20 | 50.10568 | 14.26265 | 1186 ft | 2 kts | 4° |
| 2026-04-30 19:20 | 50.10552 | 14.26263 | 1187 ft | 2 kts | 4° |
| 2026-04-30 19:20 | 50.10524 | 14.26280 | 1187 ft | 2 kts | 314° |
| 2026-04-30 19:21 | 50.10513 | 14.26300 | 1188 ft | 2 kts | 305° |
| 2026-04-30 19:21 | 50.10510 | 14.26307 | 1188 ft | 0 kts | 305° |
| 2026-04-30 19:24 | 50.10515 | 14.26297 | 1188 ft | 2 kts | 305° |
| 2026-04-30 19:24 | 50.10525 | 14.26210 | 1188 ft | 5 kts | 239° |
| 2026-04-30 19:25 | 50.10480 | 14.26155 | 1191 ft | 9 kts | 214° |
| 2026-04-30 19:26 | 50.10315 | 14.26360 | 1195 ft | 25 kts | 126° |
| 2026-04-30 19:26 | 50.10084 | 14.26841 | 1208 ft | 30 kts | 127° |
| 2026-04-30 19:26 | 50.09955 | 14.27106 | 1210 ft | 21 kts | 126° |
| 2026-04-30 19:27 | 50.09759 | 14.27460 | 1214 ft | 28 kts | 134° |
| 2026-04-30 19:27 | 50.09566 | 14.27761 | 1224 ft | 21 kts | 134° |
| 2026-04-30 19:28 | 50.09444 | 14.27943 | 1232 ft | 27 kts | 135° |
| 2026-04-30 19:28 | 50.09197 | 14.28281 | 1240 ft | 16 kts | 170° |
| 2026-04-30 19:29 | 50.09120 | 14.28015 | 1251 ft | 16 kts | 319° |
| 2026-04-30 19:29 | 50.09135 | 14.28000 | 1237 ft | 0 kts | 324° |
| 2026-04-30 19:30 | 50.09497 | 14.27240 | 1216 ft | 113 kts | 306° |
| 2026-04-30 19:30 | 50.10803 | 14.24501 | 1824 ft | 173 kts | 309° |
| 2026-04-30 19:31 | 50.12303 | 14.21413 | 3169 ft | 196 kts | 311° |
| 2026-04-30 19:31 | 50.13169 | 14.19647 | 3615 ft | 218 kts | 311° |
| 2026-04-30 19:31 | 50.15184 | 14.15504 | 4671 ft | 261 kts | 309° |
| 2026-04-30 19:32 | 50.16289 | 14.13211 | 5533 ft | 269 kts | 309° |
| 2026-04-30 19:32 | 50.17422 | 14.10847 | 6495 ft | 275 kts | 309° |
| 2026-04-30 19:32 | 50.18578 | 14.08426 | 7411 ft | 280 kts | 309° |
| 2026-04-30 19:32 | 50.19747 | 14.05977 | 8325 ft | 285 kts | 310° |
| 2026-04-30 19:33 | 50.20940 | 14.03476 | 9272 ft | 289 kts | 309° |
| 2026-04-30 19:33 | 50.21895 | 14.00673 | 10217 ft | 299 kts | 292° |
| 2026-04-30 19:33 | 50.22315 | 13.97398 | 10635 ft | 327 kts | 274° |
| 2026-04-30 19:33 | 50.21980 | 13.93779 | 11100 ft | 348 kts | 253° |
| 2026-04-30 19:34 | 50.21184 | 13.90164 | 11862 ft | 355 kts | 252° |
| 2026-04-30 19:34 | 50.20393 | 13.86489 | 12653 ft | 360 kts | 253° |
| 2026-04-30 19:34 | 50.18815 | 13.78960 | 14236 ft | 370 kts | 254° |
| 2026-04-30 19:35 | 50.18013 | 13.75121 | 14926 ft | 375 kts | 254° |
| 2026-04-30 19:35 | 50.17195 | 13.71227 | 15616 ft | 379 kts | 254° |
| 2026-04-30 19:35 | 50.16366 | 13.67299 | 16319 ft | 384 kts | 254° |
| 2026-04-30 19:35 | 50.15535 | 13.63381 | 16999 ft | 388 kts | 254° |
| 2026-04-30 19:36 | 50.14681 | 13.59363 | 17678 ft | 393 kts | 254° |
| 2026-04-30 19:36 | 50.13818 | 13.55303 | 18354 ft | 397 kts | 254° |
| 2026-04-30 19:36 | 50.12047 | 13.47034 | 19556 ft | 407 kts | 254° |
| 2026-04-30 19:37 | 50.11139 | 13.42839 | 20126 ft | 411 kts | 254° |
| 2026-04-30 19:37 | 50.10220 | 13.38591 | 20708 ft | 416 kts | 254° |
| 2026-04-30 19:37 | 50.09352 | 13.34276 | 21257 ft | 419 kts | 260° |
| 2026-04-30 19:37 | 50.08884 | 13.29796 | 21818 ft | 419 kts | 270° |
| 2026-04-30 19:38 | 50.08763 | 13.25251 | 22390 ft | 422 kts | 273° |
| 2026-04-30 19:38 | 50.08655 | 13.20656 | 22969 ft | 427 kts | 273° |
| 2026-04-30 19:38 | 50.08540 | 13.16083 | 23530 ft | 431 kts | 273° |
| 2026-04-30 19:38 | 50.08413 | 13.11393 | 23928 ft | 435 kts | 272° |
| 2026-04-30 19:39 | 50.08279 | 13.06715 | 24000 ft | 427 kts | 272° |
| 2026-04-30 19:39 | 50.08187 | 13.02147 | 24012 ft | 417 kts | 277° |
| 2026-04-30 19:39 | 50.08501 | 12.97716 | 24010 ft | 407 kts | 288° |
| 2026-04-30 19:39 | 50.09188 | 12.93482 | 24012 ft | 404 kts | 292° |
| 2026-04-30 19:40 | 50.09911 | 12.89245 | 23971 ft | 404 kts | 291° |
| 2026-04-30 19:40 | 50.10622 | 12.85007 | 24009 ft | 405 kts | 291° |
| 2026-04-30 19:40 | 50.11318 | 12.80817 | 24013 ft | 405 kts | 291° |
| 2026-04-30 19:40 | 50.12023 | 12.76564 | 24013 ft | 405 kts | 291° |
| 2026-04-30 19:41 | 50.12732 | 12.72308 | 24012 ft | 405 kts | 291° |
| 2026-04-30 19:41 | 50.13439 | 12.68061 | 24009 ft | 405 kts | 291° |
| 2026-04-30 19:41 | 50.14145 | 12.63809 | 24013 ft | 405 kts | 291° |
| 2026-04-30 19:41 | 50.14848 | 12.59553 | 24012 ft | 405 kts | 291° |
| 2026-04-30 19:42 | 50.15544 | 12.55297 | 24008 ft | 405 kts | 290° |
| 2026-04-30 19:42 | 50.16242 | 12.51032 | 24009 ft | 405 kts | 291° |
| 2026-04-30 19:42 | 50.16932 | 12.46837 | 24007 ft | 405 kts | 291° |
| 2026-04-30 19:42 | 50.17631 | 12.42581 | 23982 ft | 405 kts | 290° |
| 2026-04-30 19:43 | 50.18328 | 12.38324 | 23995 ft | 405 kts | 290° |
| 2026-04-30 19:43 | 50.19037 | 12.34053 | 24333 ft | 408 kts | 292° |
| 2026-04-30 19:43 | 50.19958 | 12.29879 | 24427 ft | 405 kts | 296° |
| 2026-04-30 19:44 | 50.21870 | 12.21637 | 24439 ft | 404 kts | 296° |
| 2026-04-30 19:44 | 50.22822 | 12.17516 | 24437 ft | 404 kts | 296° |
| 2026-04-30 19:44 | 50.23768 | 12.13389 | 24436 ft | 404 kts | 296° |
| 2026-04-30 19:44 | 50.24712 | 12.09252 | 24430 ft | 404 kts | 296° |
| 2026-04-30 19:45 | 50.25653 | 12.05116 | 24437 ft | 404 kts | 296° |
| 2026-04-30 19:45 | 50.26593 | 12.00987 | 24424 ft | 403 kts | 295° |
| 2026-04-30 19:45 | 50.27525 | 11.96913 | 24437 ft | 404 kts | 295° |
| 2026-04-30 19:45 | 50.28469 | 11.92776 | 24434 ft | 404 kts | 294° |
| 2026-04-30 19:46 | 50.29063 | 11.88446 | 24442 ft | 411 kts | 283° |
| 2026-04-30 19:46 | 50.29474 | 11.84025 | 24434 ft | 411 kts | 283° |
| 2026-04-30 19:46 | 50.29874 | 11.79600 | 24433 ft | 411 kts | 283° |
| 2026-04-30 19:46 | 50.30267 | 11.75172 | 24431 ft | 411 kts | 283° |
| 2026-04-30 19:47 | 50.30655 | 11.70742 | 24430 ft | 411 kts | 283° |
| 2026-04-30 19:47 | 50.30911 | 11.67812 | 24430 ft | 411 kts | 283° |
| 2026-04-30 19:47 | 50.31432 | 11.61873 | 24429 ft | 411 kts | 283° |
| 2026-04-30 19:47 | 50.31823 | 11.57449 | 24401 ft | 411 kts | 283° |
| 2026-04-30 19:48 | 50.32210 | 11.53074 | 24406 ft | 411 kts | 282° |
| 2026-04-30 19:48 | 50.32594 | 11.48645 | 24413 ft | 412 kts | 282° |
| 2026-04-30 19:48 | 50.32976 | 11.44201 | 24414 ft | 412 kts | 282° |
| 2026-04-30 19:48 | 50.33355 | 11.39760 | 24418 ft | 412 kts | 282° |
| 2026-04-30 19:49 | 50.33733 | 11.35320 | 24422 ft | 412 kts | 282° |
| 2026-04-30 19:49 | 50.34494 | 11.26432 | 24427 ft | 412 kts | 282° |
| 2026-04-30 19:49 | 50.34872 | 11.21982 | 24426 ft | 412 kts | 282° |
| 2026-04-30 19:50 | 50.35249 | 11.17534 | 24426 ft | 412 kts | 282° |
| 2026-04-30 19:50 | 50.35623 | 11.13088 | 24403 ft | 412 kts | 282° |
| 2026-04-30 19:50 | 50.35989 | 11.08703 | 24413 ft | 412 kts | 282° |
| 2026-04-30 19:50 | 50.36358 | 11.04252 | 24417 ft | 412 kts | 282° |
| 2026-04-30 19:51 | 50.36724 | 10.99807 | 24419 ft | 412 kts | 282° |
| 2026-04-30 19:51 | 50.37086 | 10.95358 | 24424 ft | 412 kts | 282° |
| 2026-04-30 19:51 | 50.37445 | 10.90907 | 24426 ft | 412 kts | 282° |
| 2026-04-30 19:51 | 50.37804 | 10.86462 | 24427 ft | 411 kts | 282° |
| 2026-04-30 19:52 | 50.38164 | 10.82015 | 24433 ft | 411 kts | 282° |
| 2026-04-30 19:52 | 50.38522 | 10.77575 | 24432 ft | 411 kts | 282° |
| 2026-04-30 19:52 | 50.38880 | 10.73126 | 24426 ft | 411 kts | 281° |
| 2026-04-30 19:52 | 50.39237 | 10.68689 | 24425 ft | 411 kts | 282° |
| 2026-04-30 19:53 | 50.39589 | 10.64302 | 24403 ft | 411 kts | 281° |
| 2026-04-30 19:53 | 50.39942 | 10.59862 | 24409 ft | 411 kts | 281° |
| 2026-04-30 19:53 | 50.40292 | 10.55422 | 24410 ft | 411 kts | 281° |
| 2026-04-30 19:53 | 50.40641 | 10.50989 | 24412 ft | 411 kts | 281° |
| 2026-04-30 19:54 | 50.40989 | 10.46545 | 24413 ft | 411 kts | 281° |
| 2026-04-30 19:54 | 50.41333 | 10.42100 | 24414 ft | 410 kts | 281° |
| 2026-04-30 19:54 | 50.41672 | 10.37661 | 24399 ft | 410 kts | 281° |
| 2026-04-30 19:54 | 50.42011 | 10.33208 | 23261 ft | 414 kts | 281° |
| 2026-04-30 19:55 | 50.42359 | 10.28678 | 21671 ft | 424 kts | 280° |
| 2026-04-30 19:55 | 50.42713 | 10.24102 | 20102 ft | 432 kts | 280° |
| 2026-04-30 19:55 | 50.43074 | 10.19371 | 18449 ft | 440 kts | 279° |
| 2026-04-30 19:55 | 50.43431 | 10.14591 | 16964 ft | 440 kts | 278° |
| 2026-04-30 19:56 | 50.43770 | 10.09924 | 16526 ft | 421 kts | 278° |
| 2026-04-30 19:56 | 50.44096 | 10.05438 | 16269 ft | 409 kts | 278° |
| 2026-04-30 19:56 | 50.44415 | 10.01057 | 16009 ft | 397 kts | 278° |
| 2026-04-30 19:56 | 50.44725 | 9.96821 | 15762 ft | 387 kts | 278° |
| 2026-04-30 19:57 | 50.45027 | 9.92688 | 15477 ft | 377 kts | 278° |
| 2026-04-30 19:57 | 50.45330 | 9.88574 | 14263 ft | 383 kts | 278° |
| 2026-04-30 19:57 | 50.45639 | 9.84427 | 12779 ft | 391 kts | 278° |
| 2026-04-30 19:57 | 50.45948 | 9.80233 | 12034 ft | 385 kts | 277° |
| 2026-04-30 19:58 | 50.46246 | 9.76114 | 11697 ft | 374 kts | 277° |
| 2026-04-30 19:58 | 50.46526 | 9.72123 | 11523 ft | 360 kts | 277° |
| 2026-04-30 19:58 | 50.46790 | 9.68296 | 11383 ft | 346 kts | 277° |
| 2026-04-30 19:58 | 50.47044 | 9.64636 | 11391 ft | 328 kts | 277° |
| 2026-04-30 19:59 | 50.47253 | 9.61159 | 11395 ft | 313 kts | 272° |
| 2026-04-30 19:59 | 50.47182 | 9.57833 | 11393 ft | 298 kts | 263° |
| 2026-04-30 19:59 | 50.46282 | 9.51841 | 11382 ft | 269 kts | 247° |
| 2026-04-30 20:00 | 50.45507 | 9.49232 | 11143 ft | 264 kts | 242° |
| 2026-04-30 20:00 | 50.44700 | 9.46688 | 11077 ft | 258 kts | 241° |
| 2026-04-30 20:00 | 50.43897 | 9.44180 | 10805 ft | 257 kts | 241° |
| 2026-04-30 20:00 | 50.43094 | 9.41692 | 10531 ft | 255 kts | 240° |
| 2026-04-30 20:01 | 50.41550 | 9.36712 | 9899 ft | 253 kts | 243° |
| 2026-04-30 20:01 | 50.40813 | 9.34216 | 9569 ft | 251 kts | 243° |
| 2026-04-30 20:01 | 50.40086 | 9.31743 | 9392 ft | 250 kts | 243° |
| 2026-04-30 20:02 | 50.38625 | 9.26800 | 9394 ft | 251 kts | 243° |
| 2026-04-30 20:02 | 50.37887 | 9.24323 | 9387 ft | 250 kts | 242° |
| 2026-04-30 20:03 | 50.36418 | 9.19415 | 9390 ft | 251 kts | 242° |
| 2026-04-30 20:03 | 50.35680 | 9.16949 | 9391 ft | 251 kts | 242° |
| 2026-04-30 20:03 | 50.34938 | 9.14476 | 9390 ft | 251 kts | 242° |
| 2026-04-30 20:03 | 50.34200 | 9.12008 | 9390 ft | 250 kts | 242° |
| 2026-04-30 20:04 | 50.33460 | 9.09538 | 9382 ft | 250 kts | 242° |
| 2026-04-30 20:04 | 50.32719 | 9.07070 | 9383 ft | 251 kts | 242° |
| 2026-04-30 20:04 | 50.31978 | 9.04606 | 9382 ft | 250 kts | 242° |
| 2026-04-30 20:05 | 50.30488 | 8.99672 | 9251 ft | 250 kts | 242° |
| 2026-04-30 20:05 | 50.29745 | 8.97212 | 9145 ft | 249 kts | 242° |
| 2026-04-30 20:05 | 50.28277 | 8.92354 | 8593 ft | 245 kts | 241° |
| 2026-04-30 20:06 | 50.27549 | 8.89957 | 8276 ft | 243 kts | 242° |
| 2026-04-30 20:06 | 50.26828 | 8.87576 | 7981 ft | 241 kts | 242° |
| 2026-04-30 20:06 | 50.26123 | 8.85248 | 7686 ft | 239 kts | 242° |
| 2026-04-30 20:06 | 50.25412 | 8.82908 | 7396 ft | 238 kts | 242° |
| 2026-04-30 20:07 | 50.24706 | 8.80586 | 7099 ft | 236 kts | 242° |
| 2026-04-30 20:07 | 50.24006 | 8.78285 | 6806 ft | 234 kts | 242° |
| 2026-04-30 20:07 | 50.22617 | 8.73720 | 6155 ft | 232 kts | 241° |
| 2026-04-30 20:08 | 50.21924 | 8.71451 | 5822 ft | 231 kts | 240° |
| 2026-04-30 20:08 | 50.21231 | 8.69187 | 5504 ft | 230 kts | 240° |
| 2026-04-30 20:08 | 50.20543 | 8.66940 | 5205 ft | 229 kts | 239° |
| 2026-04-30 20:08 | 50.19863 | 8.64714 | 5022 ft | 226 kts | 239° |
| 2026-04-30 20:09 | 50.19180 | 8.62489 | 5016 ft | 229 kts | 239° |
| 2026-04-30 20:09 | 50.18491 | 8.60245 | 5015 ft | 230 kts | 239° |
| 2026-04-30 20:09 | 50.17185 | 8.55967 | 5008 ft | 211 kts | 239° |
| 2026-04-30 20:10 | 50.15923 | 8.51867 | 5012 ft | 209 kts | 239° |
| 2026-04-30 20:10 | 50.15294 | 8.49827 | 5013 ft | 209 kts | 239° |
| 2026-04-30 20:10 | 50.14664 | 8.47783 | 5014 ft | 209 kts | 239° |
| 2026-04-30 20:11 | 50.13400 | 8.43693 | 5022 ft | 209 kts | 238° |
| 2026-04-30 20:11 | 50.12767 | 8.41652 | 5019 ft | 209 kts | 238° |
| 2026-04-30 20:11 | 50.12148 | 8.39653 | 5022 ft | 210 kts | 239° |
| 2026-04-30 20:12 | 50.10880 | 8.35558 | 5031 ft | 210 kts | 239° |
| 2026-04-30 20:12 | 50.10243 | 8.33505 | 5024 ft | 210 kts | 239° |
| 2026-04-30 20:12 | 50.09607 | 8.31452 | 5023 ft | 211 kts | 239° |
| 2026-04-30 20:13 | 50.08971 | 8.29398 | 5022 ft | 210 kts | 239° |
| 2026-04-30 20:13 | 50.08335 | 8.27352 | 5025 ft | 210 kts | 239° |
| 2026-04-30 20:13 | 50.07702 | 8.25314 | 4986 ft | 208 kts | 239° |
| 2026-04-30 20:13 | 50.07287 | 8.23974 | 4816 ft | 208 kts | 238° |
| 2026-04-30 20:14 | 50.06651 | 8.21939 | 4538 ft | 209 kts | 238° |
| 2026-04-30 20:14 | 50.06010 | 8.19898 | 4280 ft | 210 kts | 238° |
| 2026-04-30 20:14 | 50.05373 | 8.17856 | 4072 ft | 210 kts | 238° |
| 2026-04-30 20:14 | 50.04664 | 8.15894 | 4006 ft | 203 kts | 218° |
| 2026-04-30 20:15 | 50.03108 | 8.14802 | 4032 ft | 178 kts | 172° |
| 2026-04-30 20:15 | 50.02312 | 8.14867 | 4050 ft | 163 kts | 166° |
| 2026-04-30 20:15 | 50.00918 | 8.15122 | 4017 ft | 142 kts | 163° |
| 2026-04-30 20:15 | 50.00281 | 8.15230 | 4002 ft | 132 kts | 163° |
| 2026-04-30 20:16 | 49.99401 | 8.15453 | 4002 ft | 124 kts | 144° |
| 2026-04-30 20:16 | 49.98860 | 8.16437 | 4030 ft | 127 kts | 112° |
| 2026-04-30 20:16 | 49.98595 | 8.17747 | 4022 ft | 131 kts | 105° |
| 2026-04-30 20:16 | 49.98394 | 8.19126 | 4019 ft | 132 kts | 99° |
| 2026-04-30 20:17 | 49.98396 | 8.20550 | 4017 ft | 131 kts | 97° |
| 2026-04-30 20:17 | 49.98262 | 8.21946 | 4014 ft | 131 kts | 102° |
| 2026-04-30 20:17 | 49.98053 | 8.23316 | 4012 ft | 131 kts | 112° |
| 2026-04-30 20:17 | 49.97446 | 8.24357 | 4011 ft | 137 kts | 149° |
| 2026-04-30 20:18 | 49.96492 | 8.24474 | 4008 ft | 144 kts | 188° |
| 2026-04-30 20:18 | 49.95692 | 8.23464 | 3999 ft | 161 kts | 238° |
| 2026-04-30 20:18 | 49.95630 | 8.21711 | 3965 ft | 171 kts | 296° |
| 2026-04-30 20:18 | 49.96424 | 8.20469 | 3898 ft | 159 kts | 353° |